createdAt,value
2019-05-26T12:00:30.778Z,23.94
2019-05-26T12:01:06.306Z,24.00
2019-05-26T12:01:42.054Z,24.15
2019-05-26T12:02:17.005Z,24.33
2019-05-26T12:02:52.282Z,24.45
2019-05-26T12:03:27.743Z,24.47
2019-05-26T12:04:03.167Z,24.63
2019-05-26T12:04:38.605Z,24.79
2019-05-26T12:05:17.443Z,24.96
2019-05-26T12:05:51.363Z,25.04
2019-05-26T12:06:26.859Z,25.15
2019-05-26T12:07:04.502Z,25.27
2019-05-26T12:07:39.021Z,25.32
2019-05-26T12:08:14.253Z,25.38
2019-05-26T12:08:49.735Z,25.41
2019-05-26T12:09:24.860Z,25.48
2019-05-26T12:10:00.354Z,25.47
2019-05-26T12:10:35.860Z,25.67
2019-05-26T12:11:10.982Z,25.92
2019-05-26T12:11:46.262Z,26.08
2019-05-26T12:12:21.897Z,26.20
2019-05-26T12:12:56.863Z,26.21
2019-05-26T12:13:32.262Z,26.11
2019-05-26T12:14:07.988Z,26.24
2019-05-26T12:14:42.911Z,26.42
2019-05-26T12:15:19.807Z,26.40
2019-05-26T12:15:55.498Z,26.25
2019-05-26T12:16:30.637Z,26.33
2019-05-26T12:17:06.071Z,26.21
2019-05-26T12:17:41.434Z,26.30
2019-05-26T12:18:16.422Z,26.33
2019-05-26T12:18:51.677Z,26.38
2019-05-26T12:19:27.042Z,26.38
2019-05-26T12:20:05.113Z,26.26
2019-05-26T12:20:39.223Z,26.20
2019-05-26T12:21:14.568Z,26.03
2019-05-26T12:21:49.656Z,25.98
2019-05-26T12:22:25.004Z,25.96
2019-05-26T12:23:00.635Z,25.90
2019-05-26T12:23:35.444Z,25.76
2019-05-26T12:24:10.920Z,25.76
2019-05-26T12:24:46.407Z,25.74
2019-05-26T12:25:21.558Z,25.64
2019-05-26T12:25:57.010Z,25.63
2019-05-26T12:26:32.833Z,25.49
2019-05-26T12:27:08.009Z,25.44
2019-05-26T12:27:43.327Z,25.38
2019-05-26T12:28:18.778Z,25.34
2019-05-26T12:28:53.746Z,25.19
2019-05-26T12:29:28.980Z,25.21
2019-05-26T12:30:06.781Z,25.25
2019-05-26T12:30:41.713Z,25.25
2019-05-26T12:31:17.021Z,25.25
2019-05-26T12:31:52.514Z,25.26
2019-05-26T12:32:27.492Z,25.20
2019-05-26T12:33:02.833Z,25.21
2019-05-26T12:33:38.596Z,25.13
2019-05-26T12:34:13.543Z,25.16
2019-05-26T12:34:48.846Z,25.09
2019-05-26T12:35:25.379Z,25.14
2019-05-26T12:36:00.178Z,25.11
2019-05-26T12:36:39.023Z,25.07
2019-05-26T12:37:12.969Z,24.79
2019-05-26T12:37:48.671Z,24.91
2019-05-26T12:38:24.222Z,24.93
2019-05-26T12:38:59.581Z,24.98
2019-05-26T12:39:34.499Z,24.98
2019-05-26T12:40:11.587Z,24.98
2019-05-26T12:40:47.021Z,24.84
2019-05-26T12:41:22.866Z,24.60
2019-05-26T12:41:58.154Z,24.66
2019-05-26T12:42:33.561Z,24.60
2019-05-26T12:43:08.511Z,24.67
2019-05-26T12:43:43.770Z,24.69
2019-05-26T12:44:19.300Z,24.64
2019-05-26T12:44:54.489Z,24.68
2019-05-26T12:45:29.724Z,24.67
2019-05-26T12:46:05.306Z,24.63
2019-05-26T12:46:40.570Z,24.62
2019-05-26T12:47:16.017Z,24.56
2019-05-26T12:47:51.493Z,24.60
2019-05-26T12:48:27.042Z,24.59
2019-05-26T12:49:02.237Z,24.61
2019-05-26T12:49:37.743Z,24.63
2019-05-26T12:50:13.057Z,24.60
2019-05-26T12:50:48.466Z,24.60
2019-05-26T12:51:23.953Z,24.63
2019-05-26T12:51:58.889Z,24.66
2019-05-26T12:52:34.700Z,24.68
2019-05-26T12:53:10.134Z,24.72
2019-05-26T12:53:45.073Z,24.68
2019-05-26T12:54:20.394Z,24.66
2019-05-26T12:54:56.099Z,24.68
2019-05-26T12:55:31.102Z,24.70
2019-05-26T12:56:06.417Z,24.72
2019-05-26T12:56:41.855Z,24.73
2019-05-26T12:57:16.827Z,24.79
2019-05-26T12:57:52.261Z,24.80
2019-05-26T12:58:28.081Z,24.85
2019-05-26T12:59:03.111Z,24.85
2019-05-26T12:59:38.527Z,24.91
2019-05-26T13:00:14.590Z,24.98
2019-05-26T13:00:53.819Z,24.94
2019-05-26T13:01:26.524Z,25.05
2019-05-26T13:02:02.327Z,25.19
2019-05-26T13:02:37.305Z,25.35
2019-05-26T13:03:12.762Z,25.49
2019-05-26T13:03:48.663Z,25.55
2019-05-26T13:04:23.578Z,25.54
2019-05-26T13:04:58.964Z,25.60
2019-05-26T13:05:34.504Z,25.68
2019-05-26T13:06:09.482Z,25.78
2019-05-26T13:06:44.568Z,25.63
2019-05-26T13:07:20.523Z,25.74
2019-05-26T13:07:55.594Z,25.82
2019-05-26T13:08:30.918Z,25.92
2019-05-26T13:09:09.979Z,26.00
2019-05-26T13:09:45.246Z,25.97
2019-05-26T13:10:20.946Z,25.98
2019-05-26T13:10:56.803Z,25.95
2019-05-26T13:11:31.687Z,25.90
2019-05-26T13:12:07.312Z,25.90
2019-05-26T13:12:42.753Z,25.93
2019-05-26T13:13:17.738Z,25.74
2019-05-26T13:13:53.045Z,25.69
2019-05-26T13:14:28.682Z,25.65
2019-05-26T13:15:06.227Z,25.54
2019-05-26T13:15:41.831Z,25.50
2019-05-26T13:16:17.412Z,25.20
2019-05-26T13:16:52.661Z,25.12
2019-05-26T13:17:27.961Z,25.17
2019-05-26T13:18:03.729Z,25.13
2019-05-26T13:18:38.630Z,25.12
2019-05-26T13:19:14.129Z,25.08
2019-05-26T13:19:49.667Z,25.02
2019-05-26T13:20:25.702Z,25.00
2019-05-26T13:21:01.229Z,24.92
2019-05-26T13:21:36.744Z,24.92
2019-05-26T13:22:11.853Z,24.87
2019-05-26T13:22:47.291Z,24.87
2019-05-26T13:23:23.048Z,24.74
2019-05-26T13:23:57.955Z,24.74
2019-05-26T13:24:33.218Z,24.66
2019-05-26T13:25:09.648Z,24.67
2019-05-26T13:25:44.753Z,24.72
2019-05-26T13:26:20.409Z,24.66
2019-05-26T13:26:55.936Z,24.20
2019-05-26T13:27:31.169Z,23.91
2019-05-26T13:28:06.716Z,24.09
2019-05-26T13:28:42.278Z,24.03
2019-05-26T13:29:17.404Z,24.07
2019-05-26T13:29:52.591Z,24.15
2019-05-26T13:30:29.938Z,24.16
2019-05-26T13:31:05.015Z,24.09
2019-05-26T13:31:40.315Z,24.15
2019-05-26T13:32:15.739Z,24.25
2019-05-26T13:32:50.658Z,24.25
2019-05-26T13:33:25.934Z,24.27
2019-05-26T13:34:01.692Z,24.24
2019-05-26T13:34:36.723Z,24.18
2019-05-26T13:35:12.487Z,24.03
2019-05-26T13:35:48.162Z,23.80
2019-05-26T13:36:23.297Z,23.99
2019-05-26T13:36:58.652Z,24.05
2019-05-26T13:37:34.280Z,24.06
2019-05-26T13:38:10.069Z,24.07
2019-05-26T13:38:45.641Z,24.08
2019-05-26T13:39:21.184Z,24.14
2019-05-26T13:39:56.023Z,24.27
2019-05-26T13:40:31.437Z,24.41
2019-05-26T13:41:07.041Z,24.53
2019-05-26T13:41:41.914Z,24.62
2019-05-26T13:42:17.249Z,24.58
2019-05-26T13:42:52.985Z,24.70
2019-05-26T13:43:28.078Z,24.76
2019-05-26T13:44:03.589Z,24.81
2019-05-26T13:44:39.219Z,24.82
2019-05-26T13:45:22.227Z,24.79
2019-05-26T13:45:53.611Z,24.71
2019-05-26T13:46:29.190Z,24.65
2019-05-26T13:47:04.272Z,24.63
2019-05-26T13:47:39.662Z,24.47
2019-05-26T13:48:15.251Z,24.40
2019-05-26T13:48:50.215Z,24.54
2019-05-26T13:49:25.685Z,24.70
2019-05-26T13:50:01.300Z,24.73
2019-05-26T13:50:36.644Z,24.57
2019-05-26T13:51:11.863Z,24.57
2019-05-26T13:51:50.365Z,24.64
2019-05-26T13:52:24.396Z,24.50
2019-05-26T13:52:59.819Z,24.57
2019-05-26T13:53:35.363Z,24.48
2019-05-26T13:54:10.494Z,24.36
2019-05-26T13:54:45.817Z,24.40
2019-05-26T13:55:21.843Z,24.41
2019-05-26T13:55:57.085Z,24.38
2019-05-26T13:56:32.620Z,24.44
2019-05-26T13:57:08.150Z,24.38
2019-05-26T13:57:43.361Z,24.34
2019-05-26T13:58:18.895Z,24.39
2019-05-26T13:58:54.330Z,23.95
2019-05-26T13:59:29.511Z,23.77
2019-05-26T14:00:09.748Z,23.97
2019-05-26T14:00:45.376Z,24.10
2019-05-26T14:01:20.716Z,24.06
2019-05-26T14:01:55.917Z,24.03
2019-05-26T14:02:31.555Z,23.89
2019-05-26T14:03:06.615Z,23.92
2019-05-26T14:03:41.921Z,23.81
2019-05-26T14:04:17.567Z,23.79
2019-05-26T14:04:53.112Z,23.82
2019-05-26T14:05:28.632Z,23.82
2019-05-26T14:06:04.264Z,23.77
2019-05-26T14:06:39.381Z,23.81
2019-05-26T14:07:14.642Z,23.81
2019-05-26T14:07:50.316Z,23.84
2019-05-26T14:08:25.260Z,23.78
2019-05-26T14:09:02.254Z,23.86
2019-05-26T14:09:38.385Z,23.82
2019-05-26T14:10:15.525Z,23.84
2019-05-26T14:10:50.823Z,23.79
2019-05-26T14:11:26.269Z,23.84
2019-05-26T14:12:01.557Z,23.83
2019-05-26T14:12:36.991Z,23.85
2019-05-26T14:13:13.424Z,23.89
2019-05-26T14:13:48.226Z,23.89
2019-05-26T14:14:23.408Z,23.74
2019-05-26T14:14:59.572Z,23.78
2019-05-26T14:15:38.750Z,23.75
2019-05-26T14:16:12.647Z,23.85
2019-05-26T14:16:50.241Z,23.90
2019-05-26T14:17:27.025Z,23.92
2019-05-26T14:18:03.721Z,23.93
2019-05-26T14:18:39.289Z,23.94
2019-05-26T14:19:14.954Z,24.01
2019-05-26T14:19:52.064Z,24.01
2019-05-26T14:20:37.066Z,24.04
2019-05-26T14:21:12.074Z,23.97
2019-05-26T14:21:47.376Z,24.07
2019-05-26T14:22:22.904Z,24.09
2019-05-26T14:22:57.695Z,23.99
2019-05-26T14:23:32.929Z,24.07
2019-05-26T14:24:08.632Z,24.10
2019-05-26T14:24:53.359Z,24.10
2019-05-26T14:25:20.699Z,24.15
2019-05-26T14:25:56.334Z,24.13
2019-05-26T14:26:31.443Z,24.17
2019-05-26T14:27:07.165Z,24.12
2019-05-26T14:27:42.785Z,24.18
2019-05-26T14:28:17.766Z,24.19
2019-05-26T14:28:53.266Z,24.30
2019-05-26T14:29:28.944Z,24.31
2019-05-26T14:30:05.781Z,24.32
2019-05-26T14:30:41.163Z,24.30
2019-05-26T14:31:16.434Z,24.30
2019-05-26T14:31:52.914Z,24.38
2019-05-26T14:32:28.492Z,24.39
2019-05-26T14:33:04.099Z,24.51
2019-05-26T14:33:39.231Z,24.62
2019-05-26T14:34:14.331Z,24.65
2019-05-26T14:34:49.982Z,24.83
2019-05-26T14:35:25.168Z,24.93
2019-05-26T14:36:00.677Z,24.93
2019-05-26T14:36:36.039Z,25.00
2019-05-26T14:37:11.058Z,24.94
2019-05-26T14:37:46.509Z,25.01
2019-05-26T14:38:22.049Z,25.11
2019-05-26T14:38:57.140Z,25.18
2019-05-26T14:39:32.373Z,25.22
2019-05-26T14:40:10.656Z,25.22
2019-05-26T14:40:45.539Z,25.29
2019-05-26T14:41:20.827Z,25.25
2019-05-26T14:41:56.559Z,25.30
2019-05-26T14:42:31.506Z,25.32
2019-05-26T14:43:07.880Z,25.44
2019-05-26T14:43:43.497Z,25.39
2019-05-26T14:44:18.352Z,25.35
2019-05-26T14:44:53.725Z,25.42
2019-05-26T14:45:29.232Z,25.33
2019-05-26T14:46:04.299Z,25.39
2019-05-26T14:46:39.538Z,25.31
2019-05-26T14:47:15.042Z,25.38
2019-05-26T14:47:49.970Z,25.40
2019-05-26T14:48:25.422Z,25.39
2019-05-26T14:49:01.119Z,25.19
2019-05-26T14:49:36.153Z,25.28
2019-05-26T14:50:12.321Z,25.26
2019-05-26T14:50:47.785Z,25.22
2019-05-26T14:51:22.766Z,25.21
2019-05-26T14:51:58.400Z,25.38
2019-05-26T14:52:34.178Z,25.45
2019-05-26T14:53:09.165Z,25.45
2019-05-26T14:53:44.623Z,25.43
2019-05-26T14:54:20.143Z,25.49
2019-05-26T14:54:55.467Z,25.53
2019-05-26T14:55:31.054Z,25.54
2019-05-26T14:56:06.649Z,25.60
2019-05-26T14:56:41.693Z,25.75
2019-05-26T14:57:17.138Z,25.80
2019-05-26T14:57:52.696Z,25.81
2019-05-26T14:58:27.631Z,25.86
2019-05-26T14:59:02.907Z,25.92
2019-05-26T14:59:38.739Z,25.94
2019-05-26T15:00:15.809Z,25.92
2019-05-26T15:00:50.968Z,25.85
2019-05-26T15:01:26.814Z,25.92
2019-05-26T15:02:01.738Z,25.92
2019-05-26T15:02:37.204Z,25.99
2019-05-26T15:03:12.679Z,25.95
2019-05-26T15:03:47.610Z,25.90
2019-05-26T15:04:22.813Z,25.91
2019-05-26T15:04:58.578Z,25.81
2019-05-26T15:05:33.532Z,25.86
2019-05-26T15:06:09.120Z,25.79
2019-05-26T15:06:44.829Z,25.75
2019-05-26T15:07:19.783Z,25.73
2019-05-26T15:07:55.161Z,25.58
2019-05-26T15:08:30.682Z,25.67
2019-05-26T15:09:22.365Z,25.67
2019-05-26T15:09:46.220Z,25.71
2019-05-26T15:10:23.229Z,25.73
2019-05-26T15:10:58.549Z,25.73
2019-05-26T15:11:33.810Z,25.79
2019-05-26T15:12:09.504Z,25.75
2019-05-26T15:12:44.356Z,25.83
2019-05-26T15:13:19.971Z,25.82
2019-05-26T15:13:55.472Z,25.92
2019-05-26T15:14:30.360Z,25.87
2019-05-26T15:15:07.663Z,25.83
2019-05-26T15:15:43.501Z,25.86
2019-05-26T15:16:18.339Z,25.92
2019-05-26T15:16:53.752Z,25.86
2019-05-26T15:17:29.404Z,25.88
2019-05-26T15:18:04.260Z,25.85
2019-05-26T15:18:39.641Z,25.83
2019-05-26T15:19:15.373Z,25.92
2019-05-26T15:19:50.383Z,25.82
2019-05-26T15:20:25.866Z,25.87
2019-05-26T15:21:01.603Z,25.83
2019-05-26T15:21:36.630Z,25.82
2019-05-26T15:22:11.950Z,25.79
2019-05-26T15:22:47.614Z,25.79
2019-05-26T15:23:22.658Z,25.66
2019-05-26T15:23:58.066Z,25.68
2019-05-26T15:24:33.602Z,25.66
2019-05-26T15:25:09.315Z,25.68
2019-05-26T15:25:45.057Z,25.53
2019-05-26T15:26:20.588Z,25.61
2019-05-26T15:26:55.729Z,25.57
2019-05-26T15:27:30.994Z,25.60
2019-05-26T15:28:06.720Z,25.62
2019-05-26T15:28:41.847Z,25.62
2019-05-26T15:29:17.160Z,25.61
2019-05-26T15:29:52.895Z,25.55
2019-05-26T15:30:30.803Z,25.59
2019-05-26T15:31:06.025Z,25.66
2019-05-26T15:31:42.595Z,25.71
2019-05-26T15:32:17.557Z,25.72
2019-05-26T15:32:53.155Z,25.74
2019-05-26T15:33:28.664Z,25.79
2019-05-26T15:34:03.713Z,25.80
2019-05-26T15:34:39.038Z,25.76
2019-05-26T15:35:14.817Z,25.86
2019-05-26T15:35:49.848Z,25.87
2019-05-26T15:36:25.149Z,25.77
2019-05-26T15:37:00.904Z,25.65
2019-05-26T15:37:35.705Z,25.60
2019-05-26T15:38:11.119Z,25.48
2019-05-26T15:38:46.642Z,25.43
2019-05-26T15:39:21.738Z,25.30
2019-05-26T15:39:57.441Z,25.30
2019-05-26T15:40:32.972Z,25.17
2019-05-26T15:41:07.846Z,25.22
2019-05-26T15:41:43.153Z,25.20
2019-05-26T15:42:18.902Z,25.15
2019-05-26T15:42:53.749Z,25.11
2019-05-26T15:43:29.281Z,24.97
2019-05-26T15:44:04.787Z,25.00
2019-05-26T15:44:39.752Z,24.99
2019-05-26T15:45:15.351Z,24.86
2019-05-26T15:45:50.811Z,24.76
2019-05-26T15:46:26.014Z,24.78
2019-05-26T15:47:01.782Z,24.71
2019-05-26T15:47:37.441Z,24.72
2019-05-26T15:48:12.814Z,24.68
2019-05-26T15:48:48.083Z,24.73
2019-05-26T15:49:23.686Z,24.70
2019-05-26T15:49:58.555Z,24.67
2019-05-26T15:50:34.063Z,24.67
2019-05-26T15:51:09.666Z,24.63
2019-05-26T15:51:44.600Z,24.67
2019-05-26T15:52:19.933Z,24.67
2019-05-26T15:52:55.450Z,24.70
2019-05-26T15:53:30.780Z,24.73
2019-05-26T15:54:06.193Z,24.72
2019-05-26T15:54:41.712Z,24.79
2019-05-26T15:55:17.119Z,24.69
2019-05-26T15:55:52.599Z,24.84
2019-05-26T15:56:28.306Z,24.79
2019-05-26T15:57:03.434Z,24.83
2019-05-26T15:57:38.860Z,24.84
2019-05-26T15:58:14.651Z,24.84
2019-05-26T15:58:49.643Z,24.84
2019-05-26T15:59:25.138Z,24.89
2019-05-26T16:00:01.158Z,24.91
2019-05-26T16:00:36.197Z,24.83
2019-05-26T16:01:11.645Z,24.78
2019-05-26T16:01:48.608Z,24.77
2019-05-26T16:02:23.466Z,24.70
2019-05-26T16:02:58.774Z,24.79
2019-05-26T16:03:34.550Z,24.67
2019-05-26T16:04:09.467Z,24.62
2019-05-26T16:04:45.611Z,24.60
2019-05-26T16:05:21.510Z,24.41
2019-05-26T16:05:56.500Z,24.42
2019-05-26T16:06:32.095Z,24.50
2019-05-26T16:07:07.620Z,24.32
2019-05-26T16:07:42.715Z,24.38
2019-05-26T16:08:18.237Z,24.39
2019-05-26T16:08:53.835Z,24.34
2019-05-26T16:09:28.849Z,24.35
2019-05-26T16:10:05.549Z,24.32
2019-05-26T16:10:41.101Z,24.38
2019-05-26T16:11:16.190Z,24.35
2019-05-26T16:11:51.489Z,24.33
2019-05-26T16:12:27.060Z,24.32
2019-05-26T16:13:02.060Z,24.26
2019-05-26T16:13:37.343Z,24.20
2019-05-26T16:14:12.970Z,24.23
2019-05-26T16:14:47.897Z,24.21
2019-05-26T16:15:23.551Z,24.16
2019-05-26T16:15:58.955Z,24.12
2019-05-26T16:16:41.367Z,24.05
2019-05-26T16:17:10.967Z,24.00
2019-05-26T16:17:46.492Z,24.05
2019-05-26T16:18:21.610Z,24.06
2019-05-26T16:18:57.157Z,24.05
2019-05-26T16:19:32.731Z,24.01
2019-05-26T16:20:09.954Z,23.99
2019-05-26T16:20:45.341Z,24.02
2019-05-26T16:21:28.067Z,23.93
2019-05-26T16:21:57.460Z,23.96
2019-05-26T16:22:32.787Z,23.93
2019-05-26T16:23:09.063Z,23.91
2019-05-26T16:23:44.361Z,23.95
2019-05-26T16:24:19.714Z,24.03
2019-05-26T16:24:55.397Z,23.98
2019-05-26T16:25:30.285Z,23.96
2019-05-26T16:26:05.782Z,24.07
2019-05-26T16:26:41.469Z,23.97
2019-05-26T16:27:19.631Z,23.97
2019-05-26T16:27:53.626Z,23.94
2019-05-26T16:28:29.239Z,23.92
2019-05-26T16:29:05.012Z,24.00
2019-05-26T16:29:40.054Z,24.09
2019-05-26T16:30:15.947Z,24.14
2019-05-26T16:30:50.951Z,24.12
2019-05-26T16:31:26.295Z,24.18
2019-05-26T16:32:01.803Z,24.24
2019-05-26T16:32:36.934Z,24.22
2019-05-26T16:33:12.537Z,24.20
2019-05-26T16:33:48.154Z,24.21
2019-05-26T16:34:23.226Z,24.31
2019-05-26T16:34:58.703Z,24.32
2019-05-26T16:35:34.261Z,24.39
2019-05-26T16:36:09.531Z,24.46
2019-05-26T16:36:45.191Z,24.47
2019-05-26T16:37:20.735Z,24.49
2019-05-26T16:37:55.764Z,24.53
2019-05-26T16:38:31.373Z,24.51
2019-05-26T16:39:08.692Z,24.43
2019-05-26T16:39:43.894Z,24.47
2019-05-26T16:40:19.284Z,24.46
2019-05-26T16:40:54.648Z,24.49
2019-05-26T16:41:29.524Z,24.31
2019-05-26T16:42:05.087Z,24.07
2019-05-26T16:42:40.681Z,24.17
2019-05-26T16:43:15.800Z,24.23
2019-05-26T16:43:51.283Z,24.25
2019-05-26T16:44:26.820Z,24.29
2019-05-26T16:45:02.075Z,24.32
2019-05-26T16:45:37.561Z,24.38
2019-05-26T16:46:13.217Z,24.40
2019-05-26T16:46:55.946Z,24.39
2019-05-26T16:47:25.066Z,24.43
2019-05-26T16:48:00.586Z,24.46
2019-05-26T16:48:35.723Z,24.45
2019-05-26T16:49:11.276Z,24.44
2019-05-26T16:49:46.946Z,24.51
2019-05-26T16:50:22.066Z,24.53
2019-05-26T16:50:57.461Z,24.57
2019-05-26T16:51:33.284Z,24.57
2019-05-26T16:52:08.402Z,24.45
2019-05-26T16:52:43.837Z,24.44
2019-05-26T16:53:19.430Z,24.46
2019-05-26T16:53:54.322Z,24.54
2019-05-26T16:54:29.415Z,24.51
2019-05-26T16:55:05.945Z,24.47
2019-05-26T16:55:41.080Z,24.44
2019-05-26T16:56:16.182Z,24.50
2019-05-26T16:56:51.249Z,24.43
2019-05-26T16:57:26.305Z,24.34
2019-05-26T16:58:06.525Z,24.37
2019-05-26T16:58:40.703Z,24.30
2019-05-26T16:59:15.676Z,24.35
2019-05-26T16:59:51.096Z,24.31
2019-05-26T17:00:26.866Z,24.18
2019-05-26T17:01:01.874Z,24.16
2019-05-26T17:01:37.378Z,24.15
2019-05-26T17:02:13.048Z,24.11
2019-05-26T17:02:48.564Z,24.16
2019-05-26T17:03:23.913Z,24.20
2019-05-26T17:03:59.735Z,24.20
2019-05-26T17:04:34.868Z,24.11
2019-05-26T17:05:10.253Z,23.96
2019-05-26T17:05:45.542Z,24.02
2019-05-26T17:06:20.720Z,24.03
2019-05-26T17:06:56.099Z,24.06
2019-05-26T17:07:31.888Z,23.86
2019-05-26T17:08:06.898Z,23.92
2019-05-26T17:08:42.498Z,23.93
2019-05-26T17:09:18.240Z,23.95
2019-05-26T17:09:53.575Z,23.84
2019-05-26T17:10:29.474Z,23.81
2019-05-26T17:11:05.330Z,23.79
2019-05-26T17:11:40.614Z,23.78
2019-05-26T17:12:16.233Z,23.70
2019-05-26T17:12:51.923Z,23.74
2019-05-26T17:13:27.097Z,23.63
2019-05-26T17:14:02.543Z,23.70
2019-05-26T17:14:38.580Z,23.69
2019-05-26T17:15:13.897Z,23.71
2019-05-26T17:15:49.189Z,23.70
2019-05-26T17:16:25.401Z,23.70
2019-05-26T17:17:14.131Z,23.72
2019-05-26T17:17:38.138Z,23.70
2019-05-26T17:18:13.863Z,23.69
2019-05-26T17:18:48.877Z,23.60
2019-05-26T17:19:24.418Z,23.60
2019-05-26T17:20:00.726Z,23.57
2019-05-26T17:20:35.952Z,23.56
2019-05-26T17:21:11.715Z,23.48
2019-05-26T17:21:47.764Z,23.53
2019-05-26T17:22:22.814Z,23.58
2019-05-26T17:22:58.300Z,23.58
2019-05-26T17:23:34.250Z,23.51
2019-05-26T17:24:09.470Z,23.41
2019-05-26T17:24:45.354Z,23.44
2019-05-26T17:25:21.234Z,23.44
2019-05-26T17:25:56.568Z,23.51
2019-05-26T17:26:32.482Z,23.41
2019-05-26T17:27:08.102Z,23.37
2019-05-26T17:27:43.250Z,23.35
2019-05-26T17:28:18.817Z,23.40
2019-05-26T17:28:54.593Z,23.44
2019-05-26T17:29:29.733Z,23.45
2019-05-26T17:30:08.084Z,23.43
2019-05-26T17:30:43.728Z,23.26
2019-05-26T17:31:18.872Z,23.38
2019-05-26T17:31:54.146Z,23.35
2019-05-26T17:32:29.786Z,23.26
2019-05-26T17:33:04.923Z,23.28
2019-05-26T17:33:40.590Z,23.33
2019-05-26T17:34:16.360Z,23.30
2019-05-26T17:34:51.648Z,23.39
2019-05-26T17:35:27.143Z,23.41
2019-05-26T17:36:02.396Z,23.34
2019-05-26T17:36:37.563Z,23.42
2019-05-26T17:37:12.967Z,23.40
2019-05-26T17:37:48.589Z,23.38
2019-05-26T17:38:23.716Z,23.34
2019-05-26T17:38:59.260Z,23.41
2019-05-26T17:39:34.885Z,23.46
2019-05-26T17:40:10.883Z,23.46
2019-05-26T17:40:46.438Z,23.50
2019-05-26T17:41:22.323Z,23.49
2019-05-26T17:41:57.636Z,23.48
2019-05-26T17:42:33.235Z,23.45
2019-05-26T17:43:08.759Z,23.37
2019-05-26T17:43:43.812Z,23.31
2019-05-26T17:44:19.372Z,23.36
2019-05-26T17:44:54.981Z,23.36
2019-05-26T17:45:30.021Z,23.29
2019-05-26T17:46:05.412Z,23.34
2019-05-26T17:46:41.346Z,23.24
2019-05-26T17:47:29.216Z,23.31
2019-05-26T17:47:53.572Z,23.33
2019-05-26T17:48:29.194Z,23.26
2019-05-26T17:49:04.542Z,23.35
2019-05-26T17:49:40.078Z,23.40
2019-05-26T17:50:16.739Z,23.26
2019-05-26T17:50:53.137Z,23.29
2019-05-26T17:51:28.942Z,23.34
2019-05-26T17:52:04.670Z,23.39
2019-05-26T17:52:39.787Z,23.38
2019-05-26T17:53:15.310Z,23.37
2019-05-26T17:53:51.132Z,23.28
2019-05-26T17:54:26.075Z,23.32
2019-05-26T17:55:01.459Z,23.31
2019-05-26T17:55:37.019Z,23.35
2019-05-26T17:56:12.353Z,23.25
2019-05-26T17:56:47.775Z,23.26
2019-05-26T17:57:23.578Z,23.26
2019-05-26T17:57:58.766Z,23.23
2019-05-26T17:58:34.152Z,23.18
2019-05-26T17:59:10.149Z,23.12
2019-05-26T17:59:45.129Z,23.14
2019-05-26T18:00:21.041Z,23.11
2019-05-26T18:00:56.831Z,23.14
2019-05-26T18:01:31.861Z,23.15
2019-05-26T18:02:07.946Z,23.06
2019-05-26T18:02:45.161Z,23.05
2019-05-26T18:03:20.507Z,23.05
2019-05-26T18:03:55.873Z,23.10
2019-05-26T18:04:31.400Z,23.04
2019-05-26T18:05:08.068Z,23.08
2019-05-26T18:05:43.306Z,23.00
2019-05-26T18:06:19.066Z,22.96
2019-05-26T18:06:54.011Z,22.91
2019-05-26T18:07:29.470Z,22.94
2019-05-26T18:08:05.389Z,22.90
2019-05-26T18:08:40.534Z,22.91
2019-05-26T18:09:16.013Z,22.94
2019-05-26T18:09:52.049Z,23.02
2019-05-26T18:10:27.351Z,23.06
2019-05-26T18:11:02.774Z,23.01
2019-05-26T18:11:38.224Z,22.92
2019-05-26T18:12:13.348Z,22.96
2019-05-26T18:12:48.829Z,22.92
2019-05-26T18:13:24.404Z,22.95
2019-05-26T18:13:59.408Z,22.93
2019-05-26T18:14:34.777Z,22.91
2019-05-26T18:15:11.792Z,22.94
2019-05-26T18:15:46.768Z,22.95
2019-05-26T18:16:22.084Z,22.95
2019-05-26T18:16:57.561Z,22.97
2019-05-26T18:17:45.890Z,22.99
2019-05-26T18:18:10.115Z,23.01
2019-05-26T18:18:45.669Z,22.97
2019-05-26T18:19:20.622Z,22.96
2019-05-26T18:19:56.017Z,22.95
2019-05-26T18:20:31.658Z,22.92
2019-05-26T18:21:06.708Z,22.85
2019-05-26T18:21:42.018Z,22.77
2019-05-26T18:22:17.600Z,22.77
2019-05-26T18:22:52.540Z,22.75
2019-05-26T18:23:27.951Z,22.73
2019-05-26T18:24:03.615Z,22.73
2019-05-26T18:24:38.592Z,22.77
2019-05-26T18:25:14.173Z,22.74
2019-05-26T18:25:49.726Z,22.72
2019-05-26T18:26:24.753Z,22.66
2019-05-26T18:27:00.223Z,22.60
2019-05-26T18:27:35.783Z,22.59
2019-05-26T18:28:10.800Z,22.57
2019-05-26T18:28:46.169Z,22.59
2019-05-26T18:29:21.694Z,22.63
2019-05-26T18:29:56.698Z,22.62
2019-05-26T18:30:31.889Z,22.58
2019-05-26T18:31:07.533Z,22.57
2019-05-26T18:31:42.628Z,22.57
2019-05-26T18:32:18.623Z,22.62
2019-05-26T18:32:54.246Z,22.64
2019-05-26T18:33:29.425Z,22.58
2019-05-26T18:34:04.917Z,22.55
2019-05-26T18:34:40.406Z,22.50
2019-05-26T18:35:15.836Z,22.49
2019-05-26T18:35:51.440Z,22.53
2019-05-26T18:36:26.886Z,22.48
2019-05-26T18:37:01.750Z,22.49
2019-05-26T18:37:37.073Z,22.46
2019-05-26T18:38:12.876Z,22.44
2019-05-26T18:38:47.916Z,22.43
2019-05-26T18:39:23.194Z,22.44
2019-05-26T18:39:58.834Z,22.45
2019-05-26T18:40:33.865Z,22.42
2019-05-26T18:41:43.633Z,22.26
2019-05-26T18:42:18.597Z,22.21
2019-05-26T18:42:54.098Z,22.19
2019-05-26T18:43:29.524Z,22.22
2019-05-26T18:44:04.695Z,22.23
2019-05-26T18:44:40.099Z,22.20
2019-05-26T18:45:15.803Z,22.13
2019-05-26T18:45:51.050Z,22.07
2019-05-26T18:46:26.667Z,22.02
2019-05-26T18:47:02.131Z,22.02
2019-05-26T18:47:37.388Z,22.03
2019-05-26T18:48:12.904Z,22.05
2019-05-26T18:48:48.365Z,21.94
2019-05-26T18:49:23.141Z,21.92
2019-05-26T18:49:59.407Z,21.87
2019-05-26T18:50:34.921Z,21.88
2019-05-26T18:51:15.016Z,21.87
2019-05-26T18:51:50.454Z,21.78
2019-05-26T18:52:25.896Z,21.73
2019-05-26T18:53:00.851Z,21.66
2019-05-26T18:53:36.508Z,21.72
2019-05-26T18:54:11.834Z,21.75
2019-05-26T18:54:47.456Z,21.66
2019-05-26T18:55:23.243Z,21.65
2019-05-26T18:55:58.925Z,21.62
2019-05-26T18:56:33.981Z,21.56
2019-05-26T18:57:09.545Z,21.56
2019-05-26T18:57:44.991Z,21.48
2019-05-26T18:58:19.927Z,21.52
2019-05-26T18:58:55.417Z,21.48
2019-05-26T18:59:31.121Z,21.47
2019-05-26T19:00:09.878Z,21.47
2019-05-26T19:00:45.423Z,21.41
2019-05-26T19:01:20.766Z,21.41
2019-05-26T19:01:55.710Z,21.38
2019-05-26T19:02:31.210Z,21.45
2019-05-26T19:03:06.746Z,21.46
2019-05-26T19:03:41.552Z,21.51
2019-05-26T19:04:17.552Z,21.44
2019-05-26T19:04:53.230Z,21.51
2019-05-26T19:05:34.506Z,21.46
2019-05-26T19:06:05.588Z,21.48
2019-05-26T19:06:40.862Z,21.47
2019-05-26T19:07:15.933Z,21.45
2019-05-26T19:07:51.626Z,21.39
2019-05-26T19:08:26.875Z,21.40
2019-05-26T19:09:02.408Z,21.38
2019-05-26T19:09:38.020Z,21.40
2019-05-26T19:10:15.600Z,21.34
2019-05-26T19:10:50.652Z,21.33
2019-05-26T19:11:26.293Z,21.33
2019-05-26T19:12:01.666Z,21.28
2019-05-26T19:12:36.659Z,21.32
2019-05-26T19:13:12.228Z,21.37
2019-05-26T19:13:47.558Z,21.39
2019-05-26T19:14:22.789Z,21.31
2019-05-26T19:14:59.279Z,21.22
2019-05-26T19:15:35.017Z,21.27
2019-05-26T19:16:10.130Z,21.29
2019-05-26T19:16:45.598Z,21.21
2019-05-26T19:17:21.072Z,21.17
2019-05-26T19:17:56.079Z,21.12
2019-05-26T19:18:31.639Z,21.13
2019-05-26T19:19:06.965Z,21.16
2019-05-26T19:19:41.980Z,21.13
2019-05-26T19:20:18.287Z,21.10
2019-05-26T19:20:53.739Z,21.01
2019-05-26T19:21:28.717Z,21.00
2019-05-26T19:22:03.718Z,20.99
2019-05-26T19:22:39.240Z,20.92
2019-05-26T19:23:14.242Z,20.93
2019-05-26T19:23:49.602Z,20.94
2019-05-26T19:24:24.958Z,20.89
2019-05-26T19:25:00.134Z,20.85
2019-05-26T19:25:36.816Z,20.76
2019-05-26T19:26:12.233Z,20.73
2019-05-26T19:26:47.328Z,20.77
2019-05-26T19:27:22.939Z,20.77
2019-05-26T19:27:58.188Z,20.76
2019-05-26T19:28:33.123Z,20.72
2019-05-26T19:29:08.673Z,20.71
2019-05-26T19:29:44.224Z,20.67
2019-05-26T19:30:19.616Z,20.62
2019-05-26T19:30:55.009Z,20.64
2019-05-26T19:31:30.584Z,20.63
2019-05-26T19:32:05.843Z,20.64
2019-05-26T19:32:41.325Z,20.65
2019-05-26T19:33:16.567Z,20.65
2019-05-26T19:33:51.749Z,20.60
2019-05-26T19:34:27.342Z,20.51
2019-05-26T19:35:02.820Z,20.52
2019-05-26T19:35:37.846Z,20.49
2019-05-26T19:36:13.295Z,20.44
2019-05-26T19:36:48.859Z,20.44
2019-05-26T19:37:23.856Z,20.39
2019-05-26T19:37:59.202Z,20.40
2019-05-26T19:38:34.598Z,20.42